sensor_id;sensor_type;location;lat;lon;timestamp;pressure;altitude;pressure_sealevel;temperature;humidity
71956;BME280;59829;50.562;6.258;2023-03-03T00:02:45;96760.34;;;23.67;26.69
71956;BME280;59829;50.562;6.258;2023-03-03T00:12:48;96763.59;;;23.69;26.41
71956;BME280;59829;50.562;6.258;2023-03-03T00:22:49;96783.50;;;23.56;26.53
71956;BME280;59829;50.562;6.258;2023-03-03T00:32:51;96779.44;;;23.53;26.47
71956;BME280;59829;50.562;6.258;2023-03-03T00:42:57;96799.91;;;23.50;26.81
71956;BME280;59829;50.562;6.258;2023-03-03T00:53:05;96809.94;;;23.46;26.40
71956;BME280;59829;50.562;6.258;2023-03-03T01:03:13;96802.28;;;23.59;26.97
71956;BME280;59829;50.562;6.258;2023-03-03T01:13:15;96792.94;;;23.80;27.56
71956;BME280;59829;50.562;6.258;2023-03-03T01:23:15;96784.09;;;23.95;27.79
71956;BME280;59829;50.562;6.258;2023-03-03T01:33:16;96771.50;;;24.20;28.01
71956;BME280;59829;50.562;6.258;2023-03-03T01:43:17;96772.88;;;24.31;28.05
71956;BME280;59829;50.562;6.258;2023-03-03T01:53:29;96772.94;;;24.38;28.17
71956;BME280;59829;50.562;6.258;2023-03-03T02:03:32;96778.03;;;24.46;28.38
71956;BME280;59829;50.562;6.258;2023-03-03T02:13:33;96785.16;;;24.52;28.45
71956;BME280;59829;50.562;6.258;2023-03-03T02:33:36;96776.16;;;24.40;28.87
71956;BME280;59829;50.562;6.258;2023-03-03T02:43:56;96780.84;;;24.44;28.99
71956;BME280;59829;50.562;6.258;2023-03-03T02:53:58;96789.38;;;24.31;29.22
71956;BME280;59829;50.562;6.258;2023-03-03T03:03:58;96805.41;;;24.28;29.25
71956;BME280;59829;50.562;6.258;2023-03-03T03:13:58;96804.78;;;24.26;29.48
71956;BME280;59829;50.562;6.258;2023-03-03T03:23:59;96800.66;;;24.17;29.39
71956;BME280;59829;50.562;6.258;2023-03-03T03:34:00;96806.59;;;24.11;29.34
71956;BME280;59829;50.562;6.258;2023-03-03T03:44:00;96815.63;;;24.09;29.63
71956;BME280;59829;50.562;6.258;2023-03-03T03:54:00;96812.94;;;24.02;29.71
71956;BME280;59829;50.562;6.258;2023-03-03T04:04:01;96806.97;;;23.93;29.85
71956;BME280;59829;50.562;6.258;2023-03-03T04:14:03;96799.94;;;23.94;29.98
71956;BME280;59829;50.562;6.258;2023-03-03T04:24:04;96817.38;;;23.87;29.65
71956;BME280;59829;50.562;6.258;2023-03-03T04:34:04;96828.56;;;23.81;29.89
71956;BME280;59829;50.562;6.258;2023-03-03T04:44:05;96844.59;;;23.77;30.22
71956;BME280;59829;50.562;6.258;2023-03-03T04:54:05;96831.25;;;23.72;30.10
71956;BME280;59829;50.562;6.258;2023-03-03T05:04:06;96828.72;;;23.64;30.37
71956;BME280;59829;50.562;6.258;2023-03-03T05:14:07;96831.97;;;23.66;30.22
71956;BME280;59829;50.562;6.258;2023-03-03T05:24:08;96844.88;;;23.68;30.29
71956;BME280;59829;50.562;6.258;2023-03-03T05:34:09;96867.97;;;23.64;30.26
71956;BME280;59829;50.562;6.258;2023-03-03T05:44:09;96856.59;;;23.72;30.31
71956;BME280;59829;50.562;6.258;2023-03-03T05:54:10;96864.28;;;23.73;30.03
71956;BME280;59829;50.562;6.258;2023-03-03T06:04:10;96861.03;;;23.71;30.22
71956;BME280;59829;50.562;6.258;2023-03-03T06:14:10;96869.97;;;23.62;30.43
71956;BME280;59829;50.562;6.258;2023-03-03T06:24:11;96883.03;;;23.62;30.15
71956;BME280;59829;50.562;6.258;2023-03-03T06:34:11;96877.44;;;23.65;30.38
71956;BME280;59829;50.562;6.258;2023-03-03T06:44:12;96897.56;;;23.65;30.18
71956;BME280;59829;50.562;6.258;2023-03-03T06:54:17;96901.16;;;23.64;30.33
71956;BME280;59829;50.562;6.258;2023-03-03T07:04:28;96900.00;;;23.66;30.34
71956;BME280;59829;50.562;6.258;2023-03-03T07:14:30;96905.84;;;23.68;30.19
71956;BME280;59829;50.562;6.258;2023-03-03T07:24:31;96928.69;;;23.74;30.24
71956;BME280;59829;50.562;6.258;2023-03-03T07:34:37;96933.09;;;23.74;30.04
71956;BME280;59829;50.562;6.258;2023-03-03T07:44:39;96952.41;;;23.73;30.18
71956;BME280;59829;50.562;6.258;2023-03-03T07:54:42;96986.81;;;23.85;30.33
71956;BME280;59829;50.562;6.258;2023-03-03T08:04:46;96989.50;;;23.76;30.74
71956;BME280;59829;50.562;6.258;2023-03-03T08:14:51;96991.47;;;23.74;31.14
71956;BME280;59829;50.562;6.258;2023-03-03T08:24:52;96990.31;;;23.77;31.47
71956;BME280;59829;50.562;6.258;2023-03-03T08:34:53;97002.28;;;23.71;31.81
71956;BME280;59829;50.562;6.258;2023-03-03T08:44:53;97002.66;;;23.68;31.84
71956;BME280;59829;50.562;6.258;2023-03-03T08:54:53;97005.91;;;23.70;31.74
71956;BME280;59829;50.562;6.258;2023-03-03T09:15:45;97036.00;;;23.89;31.59
71956;BME280;59829;50.562;6.258;2023-03-03T09:25:46;97036.47;;;23.93;31.48
71956;BME280;59829;50.562;6.258;2023-03-03T09:35:49;97052.16;;;23.93;31.87
71956;BME280;59829;50.562;6.258;2023-03-03T09:46:34;97058.22;;;23.93;32.11
71956;BME280;59829;50.562;6.258;2023-03-03T10:06:44;97074.81;;;23.86;32.17
71956;BME280;59829;50.562;6.258;2023-03-03T10:27:48;97064.16;;;23.87;32.26
71956;BME280;59829;50.562;6.258;2023-03-03T10:38:23;97050.66;;;23.75;32.43
71956;BME280;59829;50.562;6.258;2023-03-03T11:08:54;97093.56;;;23.66;32.39
71956;BME280;59829;50.562;6.258;2023-03-03T11:19:03;97096.84;;;23.68;32.31
71956;BME280;59829;50.562;6.258;2023-03-03T11:39:33;97097.53;;;23.62;32.55
71956;BME280;59829;50.562;6.258;2023-03-03T11:49:47;97087.34;;;23.67;32.51
71956;BME280;59829;50.562;6.258;2023-03-03T11:59:52;97077.53;;;23.69;32.13
71956;BME280;59829;50.562;6.258;2023-03-03T12:41:36;97056.94;;;23.66;32.55
71956;BME280;59829;50.562;6.258;2023-03-03T12:51:47;97057.59;;;23.68;32.57
71956;BME280;59829;50.562;6.258;2023-03-03T13:02:42;97047.31;;;23.67;32.49
71956;BME280;59829;50.562;6.258;2023-03-03T13:12:47;97044.06;;;23.65;32.50
71956;BME280;59829;50.562;6.258;2023-03-03T13:23:26;97043.91;;;23.58;32.74
71956;BME280;59829;50.562;6.258;2023-03-03T13:33:34;97043.31;;;23.48;32.88
71956;BME280;59829;50.562;6.258;2023-03-03T13:53:54;97058.84;;;23.41;32.63
71956;BME280;59829;50.562;6.258;2023-03-03T14:25:06;97040.69;;;23.79;32.56
71956;BME280;59829;50.562;6.258;2023-03-03T14:35:17;97042.16;;;24.19;32.22
71956;BME280;59829;50.562;6.258;2023-03-03T14:45:38;97037.81;;;24.49;32.06
71956;BME280;59829;50.562;6.258;2023-03-03T14:55:42;97035.84;;;24.66;31.88
71956;BME280;59829;50.562;6.258;2023-03-03T15:05:51;97033.75;;;24.76;31.84
71956;BME280;59829;50.562;6.258;2023-03-03T15:26:23;97017.31;;;24.82;31.67
71956;BME280;59829;50.562;6.258;2023-03-03T15:47:09;97016.13;;;24.55;31.32
71956;BME280;59829;50.562;6.258;2023-03-03T16:18:20;97027.78;;;24.82;32.75
71956;BME280;59829;50.562;6.258;2023-03-03T16:39:05;97038.09;;;24.69;33.23
71956;BME280;59829;50.562;6.258;2023-03-03T16:49:24;97043.34;;;24.69;33.42
71956;BME280;59829;50.562;6.258;2023-03-03T17:00:01;97066.28;;;24.67;33.35
71956;BME280;59829;50.562;6.258;2023-03-03T18:32:17;97111.97;;;24.50;30.40
71956;BME280;59829;50.562;6.258;2023-03-03T18:52:27;97109.63;;;24.55;28.83
71956;BME280;59829;50.562;6.258;2023-03-03T19:02:40;97106.38;;;24.53;28.45
71956;BME280;59829;50.562;6.258;2023-03-03T19:12:59;97121.38;;;24.59;27.77
71956;BME280;59829;50.562;6.258;2023-03-03T19:23:04;97123.34;;;24.57;27.20
71956;BME280;59829;50.562;6.258;2023-03-03T19:33:25;97115.44;;;24.65;26.53
71956;BME280;59829;50.562;6.258;2023-03-03T20:04:31;97117.16;;;24.73;26.59
71956;BME280;59829;50.562;6.258;2023-03-03T20:14:46;97124.63;;;24.61;26.46
71956;BME280;59829;50.562;6.258;2023-03-03T20:35:36;97141.28;;;24.68;26.24
71956;BME280;59829;50.562;6.258;2023-03-03T20:46:12;97139.66;;;24.67;26.20
71956;BME280;59829;50.562;6.258;2023-03-03T21:06:23;97152.38;;;24.70;25.92
71956;BME280;59829;50.562;6.258;2023-03-03T21:16:37;97149.41;;;24.73;25.90
71956;BME280;59829;50.562;6.258;2023-03-03T21:36:54;97150.75;;;24.69;25.93
71956;BME280;59829;50.562;6.258;2023-03-03T21:46:54;97151.84;;;24.75;25.90
71956;BME280;59829;50.562;6.258;2023-03-03T21:56:55;97148.34;;;24.82;25.92
71956;BME280;59829;50.562;6.258;2023-03-03T22:06:55;97149.97;;;24.83;26.11
71956;BME280;59829;50.562;6.258;2023-03-03T22:16:55;97143.75;;;24.84;26.52
71956;BME280;59829;50.562;6.258;2023-03-03T22:26:56;97141.75;;;24.86;26.35
71956;BME280;59829;50.562;6.258;2023-03-03T22:36:56;97150.59;;;24.85;26.57
71956;BME280;59829;50.562;6.258;2023-03-03T22:46:57;97155.75;;;24.93;26.41
71956;BME280;59829;50.562;6.258;2023-03-03T22:56:57;97149.97;;;24.83;26.01
71956;BME280;59829;50.562;6.258;2023-03-03T23:06:59;97143.03;;;24.53;27.27
71956;BME280;59829;50.562;6.258;2023-03-03T23:16:59;97143.41;;;24.50;27.69
71956;BME280;59829;50.562;6.258;2023-03-03T23:26:59;97140.28;;;24.69;27.44
71956;BME280;59829;50.562;6.258;2023-03-03T23:37:01;97139.91;;;24.72;27.70
71956;BME280;59829;50.562;6.258;2023-03-03T23:47:01;97141.53;;;24.73;27.74
71956;BME280;59829;50.562;6.258;2023-03-03T23:57:02;97141.19;;;24.76;27.85
